sensor_id;sensor_type;location;lat;lon;timestamp;pressure;altitude;pressure_sealevel;temperature;humidity
66396;BME280;53207;51.378;-1.342;2023-06-10T00:00:19;99999.63;;;29.46;29.58
66396;BME280;53207;51.378;-1.342;2023-06-10T00:02:47;100001.13;;;29.64;29.70
66396;BME280;53207;51.378;-1.342;2023-06-10T00:05:14;100003.68;;;29.89;29.65
66396;BME280;53207;51.378;-1.342;2023-06-10T00:07:42;100001.54;;;29.37;29.69
66396;BME280;53207;51.378;-1.342;2023-06-10T00:10:10;99999.42;;;29.33;29.68
66396;BME280;53207;51.378;-1.342;2023-06-10T00:12:37;99999.56;;;29.62;29.66
66396;BME280;53207;51.378;-1.342;2023-06-10T00:15:06;99996.17;;;29.55;29.70
66396;BME280;53207;51.378;-1.342;2023-06-10T00:17:34;99991.20;;;29.32;29.66
66396;BME280;53207;51.378;-1.342;2023-06-10T00:20:02;99988.37;;;29.61;29.66
66396;BME280;53207;51.378;-1.342;2023-06-10T00:22:29;99990.37;;;29.57;29.68
66396;BME280;53207;51.378;-1.342;2023-06-10T00:24:56;99987.34;;;29.29;29.63
66396;BME280;53207;51.378;-1.342;2023-06-10T00:27:24;99986.79;;;29.72;29.69
66396;BME280;53207;51.378;-1.342;2023-06-10T00:29:52;99988.29;;;29.17;29.78
66396;BME280;53207;51.378;-1.342;2023-06-10T00:32:19;99987.62;;;29.46;29.70
66396;BME280;53207;51.378;-1.342;2023-06-10T00:34:47;99986.36;;;29.48;29.71
66396;BME280;53207;51.378;-1.342;2023-06-10T00:37:14;99983.23;;;29.70;29.69
66396;BME280;53207;51.378;-1.342;2023-06-10T00:39:42;99981.45;;;29.44;29.71
66396;BME280;53207;51.378;-1.342;2023-06-10T00:42:09;99979.94;;;29.66;29.70
66396;BME280;53207;51.378;-1.342;2023-06-10T00:44:37;99981.23;;;29.60;29.79
66396;BME280;53207;51.378;-1.342;2023-06-10T00:47:05;99979.59;;;29.43;29.70
66396;BME280;53207;51.378;-1.342;2023-06-10T00:49:33;99977.57;;;29.36;29.74
66396;BME280;53207;51.378;-1.342;2023-06-10T00:52:01;99980.29;;;29.32;29.80
66396;BME280;53207;51.378;-1.342;2023-06-10T00:54:30;99978.88;;;29.60;29.72
66396;BME280;53207;51.378;-1.342;2023-06-10T00:57:00;99981.45;;;29.36;29.71
66396;BME280;53207;51.378;-1.342;2023-06-10T00:59:28;99980.15;;;29.35;29.70
66396;BME280;53207;51.378;-1.342;2023-06-10T01:01:57;99980.78;;;28.99;29.79
66396;BME280;53207;51.378;-1.342;2023-06-10T01:04:24;99978.48;;;29.52;29.72
66396;BME280;53207;51.378;-1.342;2023-06-10T01:06:57;99977.71;;;29.30;29.69
66396;BME280;53207;51.378;-1.342;2023-06-10T01:09:33;99973.47;;;29.25;29.72
66396;BME280;53207;51.378;-1.342;2023-06-10T01:12:10;99975.27;;;29.25;29.73
66396;BME280;53207;51.378;-1.342;2023-06-10T01:14:39;99975.89;;;29.25;29.72
66396;BME280;53207;51.378;-1.342;2023-06-10T01:17:07;99978.09;;;29.45;29.70
66396;BME280;53207;51.378;-1.342;2023-06-10T01:19:34;99975.19;;;29.46;29.68
66396;BME280;53207;51.378;-1.342;2023-06-10T01:22:02;99974.66;;;29.16;29.76
66396;BME280;53207;51.378;-1.342;2023-06-10T01:24:30;99975.93;;;29.36;29.78
66396;BME280;53207;51.378;-1.342;2023-06-10T01:26:59;99976.83;;;29.10;29.83
66396;BME280;53207;51.378;-1.342;2023-06-10T01:29:31;99978.30;;;29.33;29.80
66396;BME280;53207;51.378;-1.342;2023-06-10T01:32:03;99974.06;;;29.04;29.83
66396;BME280;53207;51.378;-1.342;2023-06-10T01:34:34;99971.87;;;29.02;29.85
66396;BME280;53207;51.378;-1.342;2023-06-10T01:37:02;99970.26;;;29.28;29.81
66396;BME280;53207;51.378;-1.342;2023-06-10T01:39:31;99970.00;;;28.96;29.88
66396;BME280;53207;51.378;-1.342;2023-06-10T01:41:59;99969.62;;;29.02;29.81
66396;BME280;53207;51.378;-1.342;2023-06-10T01:44:28;99968.83;;;29.19;29.87
66396;BME280;53207;51.378;-1.342;2023-06-10T01:46:55;99968.18;;;29.21;29.85
66396;BME280;53207;51.378;-1.342;2023-06-10T01:49:23;99968.06;;;29.18;29.85
66396;BME280;53207;51.378;-1.342;2023-06-10T01:51:50;99967.62;;;29.17;29.85
66396;BME280;53207;51.378;-1.342;2023-06-10T01:54:18;99967.21;;;29.12;29.88
66396;BME280;53207;51.378;-1.342;2023-06-10T01:56:45;99966.37;;;29.07;29.92
66396;BME280;53207;51.378;-1.342;2023-06-10T01:59:13;99963.20;;;28.77;29.97
66396;BME280;53207;51.378;-1.342;2023-06-10T02:01:41;99963.93;;;29.00;29.97
66396;BME280;53207;51.378;-1.342;2023-06-10T02:04:08;99962.01;;;29.00;29.97
66396;BME280;53207;51.378;-1.342;2023-06-10T02:06:36;99964.01;;;28.98;29.98
66396;BME280;53207;51.378;-1.342;2023-06-10T02:09:03;99964.86;;;28.99;29.95
66396;BME280;53207;51.378;-1.342;2023-06-10T02:11:31;99965.46;;;28.93;29.99
66396;BME280;53207;51.378;-1.342;2023-06-10T02:13:59;99964.33;;;28.92;30.00
66396;BME280;53207;51.378;-1.342;2023-06-10T02:16:26;99964.00;;;28.88;30.04
66396;BME280;53207;51.378;-1.342;2023-06-10T02:18:54;99961.04;;;28.95;29.95
66396;BME280;53207;51.378;-1.342;2023-06-10T02:21:22;99964.21;;;28.94;29.97
66396;BME280;53207;51.378;-1.342;2023-06-10T02:23:49;99963.27;;;28.92;29.96
66396;BME280;53207;51.378;-1.342;2023-06-10T02:26:17;99958.27;;;28.87;30.03
66396;BME280;53207;51.378;-1.342;2023-06-10T02:28:44;99955.32;;;28.84;30.08
66396;BME280;53207;51.378;-1.342;2023-06-10T02:31:12;99953.27;;;28.86;30.01
66396;BME280;53207;51.378;-1.342;2023-06-10T02:33:40;99951.20;;;28.78;30.09
66396;BME280;53207;51.378;-1.342;2023-06-10T02:36:08;99948.69;;;28.74;30.11
66396;BME280;53207;51.378;-1.342;2023-06-10T02:38:35;99952.75;;;28.82;30.01
66396;BME280;53207;51.378;-1.342;2023-06-10T02:41:03;99956.84;;;28.78;30.05
66396;BME280;53207;51.378;-1.342;2023-06-10T02:43:31;99956.16;;;28.74;30.07
66396;BME280;53207;51.378;-1.342;2023-06-10T02:45:58;99957.99;;;28.73;30.08
66396;BME280;53207;51.378;-1.342;2023-06-10T02:48:27;99957.54;;;28.71;30.15
66396;BME280;53207;51.378;-1.342;2023-06-10T02:50:55;99962.50;;;28.75;30.07
66396;BME280;53207;51.378;-1.342;2023-06-10T02:53:23;99963.82;;;28.64;30.17
66396;BME280;53207;51.378;-1.342;2023-06-10T02:55:50;99966.14;;;28.66;30.16
66396;BME280;53207;51.378;-1.342;2023-06-10T02:58:18;99961.05;;;28.73;30.04
66396;BME280;53207;51.378;-1.342;2023-06-10T03:00:45;99963.19;;;28.56;30.20
66396;BME280;53207;51.378;-1.342;2023-06-10T03:03:13;99960.67;;;28.49;30.29
66396;BME280;53207;51.378;-1.342;2023-06-10T03:05:40;99953.85;;;28.62;30.17
66396;BME280;53207;51.378;-1.342;2023-06-10T03:08:08;99955.76;;;28.55;30.21
66396;BME280;53207;51.378;-1.342;2023-06-10T03:10:36;99959.33;;;28.51;30.24
66396;BME280;53207;51.378;-1.342;2023-06-10T03:13:03;99960.47;;;28.50;30.21
66396;BME280;53207;51.378;-1.342;2023-06-10T03:15:31;99958.07;;;28.49;30.22
66396;BME280;53207;51.378;-1.342;2023-06-10T03:17:59;99960.88;;;28.69;30.31
66396;BME280;53207;51.378;-1.342;2023-06-10T03:20:26;99961.08;;;28.78;30.21
66396;BME280;53207;51.378;-1.342;2023-06-10T03:22:54;99959.64;;;28.49;30.21
66396;BME280;53207;51.378;-1.342;2023-06-10T03:25:21;99957.30;;;28.51;30.19
66396;BME280;53207;51.378;-1.342;2023-06-10T03:27:49;99956.37;;;28.52;30.15
66396;BME280;53207;51.378;-1.342;2023-06-10T03:30:17;99956.50;;;28.41;30.27
66396;BME280;53207;51.378;-1.342;2023-06-10T03:32:44;99953.69;;;28.42;30.26
66396;BME280;53207;51.378;-1.342;2023-06-10T03:35:12;99953.22;;;28.43;30.20
66396;BME280;53207;51.378;-1.342;2023-06-10T03:37:39;99953.94;;;28.88;30.23
66396;BME280;53207;51.378;-1.342;2023-06-10T03:40:08;99957.45;;;28.64;30.22
66396;BME280;53207;51.378;-1.342;2023-06-10T03:42:35;99953.21;;;28.74;30.12
66396;BME280;53207;51.378;-1.342;2023-06-10T03:45:04;99951.10;;;28.23;30.36
66396;BME280;53207;51.378;-1.342;2023-06-10T03:47:33;99949.78;;;28.24;30.37
66396;BME280;53207;51.378;-1.342;2023-06-10T03:50:01;99947.69;;;28.29;30.30
66396;BME280;53207;51.378;-1.342;2023-06-10T03:52:29;99950.62;;;28.51;30.33
66396;BME280;53207;51.378;-1.342;2023-06-10T03:54:56;99951.48;;;28.22;30.33
66396;BME280;53207;51.378;-1.342;2023-06-10T03:57:24;99952.31;;;28.32;30.54
66396;BME280;53207;51.378;-1.342;2023-06-10T03:59:52;99954.99;;;28.24;30.32
66396;BME280;53207;51.378;-1.342;2023-06-10T04:02:19;99956.04;;;28.47;30.33
66396;BME280;53207;51.378;-1.342;2023-06-10T04:04:47;99956.52;;;28.36;30.45
66396;BME280;53207;51.378;-1.342;2023-06-10T04:07:14;99955.00;;;28.14;30.38
66396;BME280;53207;51.378;-1.342;2023-06-10T04:09:42;99956.19;;;28.69;30.29
66396;BME280;53207;51.378;-1.342;2023-06-10T04:12:10;99956.86;;;28.06;30.45
66396;BME280;53207;51.378;-1.342;2023-06-10T04:14:38;99953.59;;;28.02;30.48
66396;BME280;53207;51.378;-1.342;2023-06-10T04:17:05;99954.38;;;28.15;30.32
66396;BME280;53207;51.378;-1.342;2023-06-10T04:19:33;99956.94;;;28.64;30.29
66396;BME280;53207;51.378;-1.342;2023-06-10T04:22:01;99958.29;;;28.11;30.35
66396;BME280;53207;51.378;-1.342;2023-06-10T04:24:29;99956.21;;;28.62;30.32
66396;BME280;53207;51.378;-1.342;2023-06-10T04:26:56;99958.67;;;28.10;30.32
66396;BME280;53207;51.378;-1.342;2023-06-10T04:29:24;99958.46;;;28.07;30.35
66396;BME280;53207;51.378;-1.342;2023-06-10T04:31:51;99958.55;;;28.34;30.35
66396;BME280;53207;51.378;-1.342;2023-06-10T04:34:19;99956.23;;;28.19;30.49
66396;BME280;53207;51.378;-1.342;2023-06-10T04:36:47;99958.15;;;28.12;30.26
66396;BME280;53207;51.378;-1.342;2023-06-10T04:39:14;99956.90;;;28.48;30.42
66396;BME280;53207;51.378;-1.342;2023-06-10T04:41:42;99954.05;;;28.25;30.39
66396;BME280;53207;51.378;-1.342;2023-06-10T04:44:09;99956.03;;;28.01;30.36
66396;BME280;53207;51.378;-1.342;2023-06-10T04:46:37;99956.44;;;28.29;30.33
66396;BME280;53207;51.378;-1.342;2023-06-10T04:49:05;99960.56;;;28.18;30.44
66396;BME280;53207;51.378;-1.342;2023-06-10T04:51:33;99960.35;;;27.90;30.45
66396;BME280;53207;51.378;-1.342;2023-06-10T04:54:00;99958.51;;;28.00;30.34
66396;BME280;53207;51.378;-1.342;2023-06-10T04:56:28;99959.36;;;28.13;30.47
66396;BME280;53207;51.378;-1.342;2023-06-10T04:58:55;99954.86;;;28.17;30.40
66396;BME280;53207;51.378;-1.342;2023-06-10T05:01:23;99953.32;;;28.26;30.31
66396;BME280;53207;51.378;-1.342;2023-06-10T05:03:51;99955.31;;;28.17;30.41
66396;BME280;53207;51.378;-1.342;2023-06-10T05:06:18;99952.56;;;28.31;30.49
66396;BME280;53207;51.378;-1.342;2023-06-10T05:08:46;99952.72;;;27.91;30.36
66396;BME280;53207;51.378;-1.342;2023-06-10T05:11:13;99950.97;;;28.17;30.36
66396;BME280;53207;51.378;-1.342;2023-06-10T05:13:41;99951.21;;;27.97;30.29
66396;BME280;53207;51.378;-1.342;2023-06-10T05:16:08;99947.87;;;27.83;30.41
66396;BME280;53207;51.378;-1.342;2023-06-10T05:18:36;99948.08;;;28.35;30.40
66396;BME280;53207;51.378;-1.342;2023-06-10T05:21:04;99947.51;;;28.12;30.41
66396;BME280;53207;51.378;-1.342;2023-06-10T05:23:31;99950.16;;;28.10;30.40
66396;BME280;53207;51.378;-1.342;2023-06-10T05:25:59;99946.45;;;27.92;30.59
66396;BME280;53207;51.378;-1.342;2023-06-10T05:28:27;99947.34;;;28.32;30.42
66396;BME280;53207;51.378;-1.342;2023-06-10T05:30:54;99948.66;;;27.82;30.40
66396;BME280;53207;51.378;-1.342;2023-06-10T05:33:22;99950.45;;;28.24;30.48
66396;BME280;53207;51.378;-1.342;2023-06-10T05:35:49;99953.48;;;28.02;30.47
66396;BME280;53207;51.378;-1.342;2023-06-10T05:38:17;99952.33;;;28.02;30.46
66396;BME280;53207;51.378;-1.342;2023-06-10T05:40:46;99947.64;;;27.75;30.47
66396;BME280;53207;51.378;-1.342;2023-06-10T05:43:13;99949.91;;;28.15;30.32
66396;BME280;53207;51.378;-1.342;2023-06-10T05:45:41;99947.51;;;27.75;30.45
66396;BME280;53207;51.378;-1.342;2023-06-10T05:48:09;99948.19;;;27.84;30.32
66396;BME280;53207;51.378;-1.342;2023-06-10T05:50:36;99948.80;;;27.85;30.32
66396;BME280;53207;51.378;-1.342;2023-06-10T05:53:04;99949.20;;;28.28;30.41
66396;BME280;53207;51.378;-1.342;2023-06-10T05:55:32;99953.29;;;28.30;30.41
66396;BME280;53207;51.378;-1.342;2023-06-10T05:57:59;99956.37;;;28.34;30.37
66396;BME280;53207;51.378;-1.342;2023-06-10T06:00:27;99957.37;;;28.13;30.42
66396;BME280;53207;51.378;-1.342;2023-06-10T06:02:55;99957.28;;;28.12;30.41
66396;BME280;53207;51.378;-1.342;2023-06-10T06:05:22;99957.07;;;28.28;30.48
66396;BME280;53207;51.378;-1.342;2023-06-10T06:07:50;99959.12;;;27.81;30.48
66396;BME280;53207;51.378;-1.342;2023-06-10T06:10:18;99962.54;;;28.25;30.54
66396;BME280;53207;51.378;-1.342;2023-06-10T06:12:46;99961.10;;;28.04;30.51
66396;BME280;53207;51.378;-1.342;2023-06-10T06:15:14;99957.85;;;28.03;30.52
66396;BME280;53207;51.378;-1.342;2023-06-10T06:17:41;99956.11;;;27.79;30.52
66396;BME280;53207;51.378;-1.342;2023-06-10T06:20:10;99952.43;;;28.28;30.51
66396;BME280;53207;51.378;-1.342;2023-06-10T06:22:37;99954.46;;;28.12;30.46
66396;BME280;53207;51.378;-1.342;2023-06-10T06:25:05;99954.74;;;28.29;30.44
66396;BME280;53207;51.378;-1.342;2023-06-10T06:27:33;99958.80;;;28.29;30.49
66396;BME280;53207;51.378;-1.342;2023-06-10T06:30:00;99959.58;;;28.10;30.46
66396;BME280;53207;51.378;-1.342;2023-06-10T06:32:28;99959.16;;;27.79;30.47
66396;BME280;53207;51.378;-1.342;2023-06-10T06:34:56;99954.07;;;28.05;30.49
66396;BME280;53207;51.378;-1.342;2023-06-10T06:37:24;99955.25;;;27.83;30.48
66396;BME280;53207;51.378;-1.342;2023-06-10T06:39:52;99954.10;;;28.39;30.36
66396;BME280;53207;51.378;-1.342;2023-06-10T06:42:20;99957.59;;;28.18;30.33
66396;BME280;53207;51.378;-1.342;2023-06-10T06:44:47;99959.32;;;28.45;30.33
66396;BME280;53207;51.378;-1.342;2023-06-10T06:47:15;99962.90;;;28.16;30.32
66396;BME280;53207;51.378;-1.342;2023-06-10T06:49:42;99967.34;;;28.20;30.33
66396;BME280;53207;51.378;-1.342;2023-06-10T06:52:10;99964.20;;;28.39;30.36
66396;BME280;53207;51.378;-1.342;2023-06-10T06:54:38;99964.97;;;28.25;30.35
66396;BME280;53207;51.378;-1.342;2023-06-10T06:57:06;99963.85;;;27.99;30.25
66396;BME280;53207;51.378;-1.342;2023-06-10T06:59:33;99961.47;;;28.00;30.25
66396;BME280;53207;51.378;-1.342;2023-06-10T07:02:00;99961.78;;;28.32;30.25
66396;BME280;53207;51.378;-1.342;2023-06-10T07:04:28;99965.52;;;28.29;30.26
66396;BME280;53207;51.378;-1.342;2023-06-10T07:06:56;99963.90;;;28.34;30.19
66396;BME280;53207;51.378;-1.342;2023-06-10T07:09:23;99963.79;;;28.32;30.28
66396;BME280;53207;51.378;-1.342;2023-06-10T07:11:51;99962.08;;;28.38;30.20
66396;BME280;53207;51.378;-1.342;2023-06-10T07:14:18;99964.75;;;28.39;30.18
66396;BME280;53207;51.378;-1.342;2023-06-10T07:16:46;99962.57;;;28.55;30.25
66396;BME280;53207;51.378;-1.342;2023-06-10T07:19:14;99958.94;;;28.37;30.19
66396;BME280;53207;51.378;-1.342;2023-06-10T07:21:42;99956.18;;;28.40;30.23
66396;BME280;53207;51.378;-1.342;2023-06-10T07:24:09;99958.45;;;28.15;30.17
66396;BME280;53207;51.378;-1.342;2023-06-10T07:26:36;99958.37;;;28.39;30.23
66396;BME280;53207;51.378;-1.342;2023-06-10T07:29:04;99959.42;;;28.16;30.23
66396;BME280;53207;51.378;-1.342;2023-06-10T07:31:32;99964.29;;;28.40;30.20
66396;BME280;53207;51.378;-1.342;2023-06-10T07:33:59;99968.90;;;28.15;30.28
66396;BME280;53207;51.378;-1.342;2023-06-10T07:36:27;99973.20;;;28.70;30.28
66396;BME280;53207;51.378;-1.342;2023-06-10T07:38:54;99975.33;;;28.47;30.24
66396;BME280;53207;51.378;-1.342;2023-06-10T07:41:23;99969.98;;;28.65;30.15
66396;BME280;53207;51.378;-1.342;2023-06-10T07:43:50;99970.05;;;28.16;30.18
66396;BME280;53207;51.378;-1.342;2023-06-10T07:46:18;99973.19;;;28.19;30.25
66396;BME280;53207;51.378;-1.342;2023-06-10T07:48:45;99974.04;;;28.22;30.18
66396;BME280;53207;51.378;-1.342;2023-06-10T07:51:12;99971.44;;;28.73;30.21
66396;BME280;53207;51.378;-1.342;2023-06-10T07:53:40;99973.75;;;28.55;30.15
66396;BME280;53207;51.378;-1.342;2023-06-10T07:56:08;99975.39;;;28.23;30.25
66396;BME280;53207;51.378;-1.342;2023-06-10T07:58:35;99973.38;;;28.52;30.23
66396;BME280;53207;51.378;-1.342;2023-06-10T08:01:03;99975.18;;;28.25;30.30
66396;BME280;53207;51.378;-1.342;2023-06-10T08:03:30;99973.59;;;28.51;30.30
66396;BME280;53207;51.378;-1.342;2023-06-10T08:05:58;99979.45;;;28.76;30.32
66396;BME280;53207;51.378;-1.342;2023-06-10T08:08:26;99977.20;;;28.27;30.28
66396;BME280;53207;51.378;-1.342;2023-06-10T08:10:53;99973.64;;;28.55;30.30
66396;BME280;53207;51.378;-1.342;2023-06-10T08:13:21;99971.82;;;28.28;30.29
66396;BME280;53207;51.378;-1.342;2023-06-10T08:15:48;99972.01;;;28.57;30.24
66396;BME280;53207;51.378;-1.342;2023-06-10T08:18:16;99970.38;;;28.54;30.34
66396;BME280;53207;51.378;-1.342;2023-06-10T08:20:44;99975.43;;;28.33;30.28
66396;BME280;53207;51.378;-1.342;2023-06-10T08:23:11;99977.61;;;28.86;30.23
66396;BME280;53207;51.378;-1.342;2023-06-10T08:25:39;99979.57;;;28.62;30.26
66396;BME280;53207;51.378;-1.342;2023-06-10T08:28:06;99978.51;;;28.31;30.27
66396;BME280;53207;51.378;-1.342;2023-06-10T08:30:34;99975.71;;;28.65;30.26
66396;BME280;53207;51.378;-1.342;2023-06-10T08:33:02;99978.82;;;28.43;30.23
66396;BME280;53207;51.378;-1.342;2023-06-10T08:35:29;99975.18;;;28.43;30.34
66396;BME280;53207;51.378;-1.342;2023-06-10T08:37:57;99976.28;;;28.69;30.29
66396;BME280;53207;51.378;-1.342;2023-06-10T08:40:24;99974.49;;;28.43;30.29
66396;BME280;53207;51.378;-1.342;2023-06-10T08:42:57;99974.63;;;28.48;30.22
66396;BME280;53207;51.378;-1.342;2023-06-10T08:45:30;99977.55;;;28.75;30.30
66396;BME280;53207;51.378;-1.342;2023-06-10T08:47:57;99976.69;;;28.52;30.22
66396;BME280;53207;51.378;-1.342;2023-06-10T08:50:26;99977.33;;;28.78;30.26
66396;BME280;53207;51.378;-1.342;2023-06-10T08:52:57;99975.61;;;28.77;30.31
66396;BME280;53207;51.378;-1.342;2023-06-10T08:55:29;99977.00;;;28.49;30.31
66396;BME280;53207;51.378;-1.342;2023-06-10T08:57:58;99973.19;;;28.53;30.35
66396;BME280;53207;51.378;-1.342;2023-06-10T09:00:26;99970.93;;;28.58;30.28
66396;BME280;53207;51.378;-1.342;2023-06-10T09:02:55;99971.37;;;28.61;30.27
66396;BME280;53207;51.378;-1.342;2023-06-10T09:05:22;99972.31;;;28.59;30.33
66396;BME280;53207;51.378;-1.342;2023-06-10T09:07:51;99973.17;;;28.60;30.33
66396;BME280;53207;51.378;-1.342;2023-06-10T09:10:19;99970.36;;;28.62;30.29
66396;BME280;53207;51.378;-1.342;2023-06-10T09:12:46;99971.15;;;28.61;30.31
66396;BME280;53207;51.378;-1.342;2023-06-10T09:15:14;99969.93;;;28.68;30.32
66396;BME280;53207;51.378;-1.342;2023-06-10T09:17:42;99970.93;;;28.64;30.41
66396;BME280;53207;51.378;-1.342;2023-06-10T09:20:10;99969.75;;;28.88;30.44
66396;BME280;53207;51.378;-1.342;2023-06-10T09:22:37;99969.06;;;28.66;30.43
66396;BME280;53207;51.378;-1.342;2023-06-10T09:25:06;99969.36;;;28.65;30.38
66396;BME280;53207;51.378;-1.342;2023-06-10T09:27:33;99970.01;;;28.66;30.45
66396;BME280;53207;51.378;-1.342;2023-06-10T09:30:24;99972.37;;;28.67;30.46
66396;BME280;53207;51.378;-1.342;2023-06-10T09:32:53;99967.24;;;28.71;30.47
66396;BME280;53207;51.378;-1.342;2023-06-10T09:35:21;99971.12;;;28.71;30.42
66396;BME280;53207;51.378;-1.342;2023-06-10T09:37:51;99972.64;;;28.73;30.43
66396;BME280;53207;51.378;-1.342;2023-06-10T09:40:19;99971.96;;;28.74;30.47
66396;BME280;53207;51.378;-1.342;2023-06-10T09:42:46;99971.10;;;29.02;30.50
66396;BME280;53207;51.378;-1.342;2023-06-10T09:45:19;99975.75;;;28.79;30.47
66396;BME280;53207;51.378;-1.342;2023-06-10T09:47:46;99973.08;;;28.80;30.44
66396;BME280;53207;51.378;-1.342;2023-06-10T09:50:14;99973.07;;;28.81;30.47
66396;BME280;53207;51.378;-1.342;2023-06-10T09:52:42;99970.64;;;28.80;30.47
66396;BME280;53207;51.378;-1.342;2023-06-10T09:55:09;99965.70;;;28.83;30.49
66396;BME280;53207;51.378;-1.342;2023-06-10T09:57:37;99965.30;;;28.84;30.47
66396;BME280;53207;51.378;-1.342;2023-06-10T10:00:06;99963.47;;;28.83;30.50
66396;BME280;53207;51.378;-1.342;2023-06-10T10:02:44;99960.45;;;28.65;30.46
66396;BME280;53207;51.378;-1.342;2023-06-10T10:05:13;99959.16;;;28.88;30.45
66396;BME280;53207;51.378;-1.342;2023-06-10T10:07:41;99960.28;;;28.89;30.47
66396;BME280;53207;51.378;-1.342;2023-06-10T10:10:09;99961.66;;;28.91;30.46
66396;BME280;53207;51.378;-1.342;2023-06-10T10:12:38;99962.51;;;28.94;30.45
66396;BME280;53207;51.378;-1.342;2023-06-10T10:15:08;99960.03;;;28.95;30.44
66396;BME280;53207;51.378;-1.342;2023-06-10T10:17:40;99961.75;;;28.97;30.43
66396;BME280;53207;51.378;-1.342;2023-06-10T10:20:13;99961.50;;;28.98;30.44
66396;BME280;53207;51.378;-1.342;2023-06-10T10:22:43;99960.61;;;29.00;30.42
66396;BME280;53207;51.378;-1.342;2023-06-10T10:25:17;99962.53;;;29.04;30.40
66396;BME280;53207;51.378;-1.342;2023-06-10T10:27:51;99959.80;;;29.06;30.37
66396;BME280;53207;51.378;-1.342;2023-06-10T10:30:20;99961.46;;;29.06;30.40
66396;BME280;53207;51.378;-1.342;2023-06-10T10:32:55;99958.07;;;29.07;30.38
66396;BME280;53207;51.378;-1.342;2023-06-10T10:35:24;99956.41;;;29.09;30.38
66396;BME280;53207;51.378;-1.342;2023-06-10T10:37:54;99954.47;;;29.11;30.38
66396;BME280;53207;51.378;-1.342;2023-06-10T10:40:22;99951.39;;;28.87;30.41
66396;BME280;53207;51.378;-1.342;2023-06-10T10:42:51;99947.50;;;29.10;30.38
66396;BME280;53207;51.378;-1.342;2023-06-10T10:45:21;99945.81;;;29.12;30.40
66396;BME280;53207;51.378;-1.342;2023-06-10T10:47:53;99945.94;;;29.15;30.36
66396;BME280;53207;51.378;-1.342;2023-06-10T10:50:22;99944.79;;;28.94;30.38
66396;BME280;53207;51.378;-1.342;2023-06-10T10:52:54;99945.01;;;29.18;30.36
66396;BME280;53207;51.378;-1.342;2023-06-10T10:55:23;99943.59;;;29.19;30.34
66396;BME280;53207;51.378;-1.342;2023-06-10T10:57:55;99944.30;;;29.19;30.35
66396;BME280;53207;51.378;-1.342;2023-06-10T11:00:31;99942.12;;;29.01;30.32
66396;BME280;53207;51.378;-1.342;2023-06-10T11:03:05;99937.25;;;29.24;30.31
66396;BME280;53207;51.378;-1.342;2023-06-10T11:05:38;99943.96;;;29.23;30.33
66396;BME280;53207;51.378;-1.342;2023-06-10T11:08:07;99946.23;;;29.28;30.29
66396;BME280;53207;51.378;-1.342;2023-06-10T11:10:36;99945.10;;;29.30;30.29
66396;BME280;53207;51.378;-1.342;2023-06-10T11:13:08;99942.86;;;29.34;30.26
66396;BME280;53207;51.378;-1.342;2023-06-10T11:15:39;99942.01;;;29.37;30.23
66396;BME280;53207;51.378;-1.342;2023-06-10T11:18:08;99936.51;;;29.38;30.23
66396;BME280;53207;51.378;-1.342;2023-06-10T11:20:54;99934.39;;;29.19;30.22
66396;BME280;53207;51.378;-1.342;2023-06-10T11:23:53;99934.69;;;29.24;30.18
66396;BME280;53207;51.378;-1.342;2023-06-10T11:26:30;99932.35;;;29.47;30.18
66396;BME280;53207;51.378;-1.342;2023-06-10T11:29:08;99932.01;;;29.00;30.17
66396;BME280;53207;51.378;-1.342;2023-06-10T11:31:39;99929.80;;;29.32;30.13
66396;BME280;53207;51.378;-1.342;2023-06-10T11:34:08;99926.98;;;29.56;30.11
66396;BME280;53207;51.378;-1.342;2023-06-10T11:36:37;99930.05;;;29.58;30.11
66396;BME280;53207;51.378;-1.342;2023-06-10T11:39:05;99928.54;;;29.37;30.09
66396;BME280;53207;51.378;-1.342;2023-06-10T11:41:33;99927.36;;;29.37;30.12
66396;BME280;53207;51.378;-1.342;2023-06-10T11:44:03;99926.45;;;29.39;30.11
66396;BME280;53207;51.378;-1.342;2023-06-10T11:46:30;99927.83;;;29.67;30.09
66396;BME280;53207;51.378;-1.342;2023-06-10T11:48:59;99932.43;;;29.51;30.05
66396;BME280;53207;51.378;-1.342;2023-06-10T11:51:29;99927.82;;;29.55;30.02
66396;BME280;53207;51.378;-1.342;2023-06-10T11:53:57;99932.71;;;29.56;30.04
66396;BME280;53207;51.378;-1.342;2023-06-10T11:56:25;99933.17;;;29.57;30.04
66396;BME280;53207;51.378;-1.342;2023-06-10T11:58:54;99926.90;;;29.36;30.00
66396;BME280;53207;51.378;-1.342;2023-06-10T12:01:22;99927.74;;;29.85;30.01
66396;BME280;53207;51.378;-1.342;2023-06-10T12:03:57;99922.03;;;29.59;30.07
66396;BME280;53207;51.378;-1.342;2023-06-10T12:06:25;99922.94;;;29.59;30.07
66396;BME280;53207;51.378;-1.342;2023-06-10T12:08:53;99923.05;;;29.33;30.07
66396;BME280;53207;51.378;-1.342;2023-06-10T12:11:21;99923.23;;;29.87;30.05
66396;BME280;53207;51.378;-1.342;2023-06-10T12:13:49;99923.64;;;29.65;30.07
66396;BME280;53207;51.378;-1.342;2023-06-10T12:16:18;99923.49;;;29.68;30.04
66396;BME280;53207;51.378;-1.342;2023-06-10T12:18:46;99922.62;;;29.40;30.08
66396;BME280;53207;51.378;-1.342;2023-06-10T12:21:18;99922.31;;;29.89;30.09
66396;BME280;53207;51.378;-1.342;2023-06-10T12:24:04;99917.12;;;29.41;30.11
66396;BME280;53207;51.378;-1.342;2023-06-10T12:26:36;99917.04;;;29.70;30.09
66396;BME280;53207;51.378;-1.342;2023-06-10T12:29:16;99909.53;;;29.78;30.03
66396;BME280;53207;51.378;-1.342;2023-06-10T12:32:00;99908.99;;;29.80;30.01
66396;BME280;53207;51.378;-1.342;2023-06-10T12:34:30;99908.27;;;29.56;30.02
66396;BME280;53207;51.378;-1.342;2023-06-10T12:36:58;99905.91;;;29.86;30.00
66396;BME280;53207;51.378;-1.342;2023-06-10T12:39:25;99912.00;;;29.61;30.01
66396;BME280;53207;51.378;-1.342;2023-06-10T12:41:53;99905.93;;;29.60;30.04
66396;BME280;53207;51.378;-1.342;2023-06-10T12:44:31;99908.86;;;29.64;30.00
66396;BME280;53207;51.378;-1.342;2023-06-10T12:46:58;99902.61;;;29.61;30.05
66396;BME280;53207;51.378;-1.342;2023-06-10T12:49:26;99897.42;;;29.65;30.00
66396;BME280;53207;51.378;-1.342;2023-06-10T12:51:53;99892.84;;;29.94;29.99
66396;BME280;53207;51.378;-1.342;2023-06-10T12:54:21;99891.84;;;29.65;30.03
66396;BME280;53207;51.378;-1.342;2023-06-10T12:56:49;99884.49;;;29.97;30.00